sensor_id;sensor_type;location;lat;lon;timestamp;temperature;humidity
53422;DHT22;39319;52.944;5.928;2024-01-15T00:00:19;4.50;99.90
53422;DHT22;39319;52.944;5.928;2024-01-15T00:02:45;4.40;99.90
53422;DHT22;39319;52.944;5.928;2024-01-15T00:05:11;4.40;99.90
53422;DHT22;39319;52.944;5.928;2024-01-15T00:07:36;4.30;99.90
53422;DHT22;39319;52.944;5.928;2024-01-15T00:10:02;5.10;99.90
53422;DHT22;39319;52.944;5.928;2024-01-15T00:12:31;4.50;99.90
53422;DHT22;39319;52.944;5.928;2024-01-15T00:14:57;4.60;99.90
53422;DHT22;39319;52.944;5.928;2024-01-15T00:17:22;4.40;99.90
53422;DHT22;39319;52.944;5.928;2024-01-15T00:19:48;4.60;99.90
53422;DHT22;39319;52.944;5.928;2024-01-15T00:22:14;4.40;99.90
53422;DHT22;39319;52.944;5.928;2024-01-15T00:24:39;5.00;99.90
53422;DHT22;39319;52.944;5.928;2024-01-15T00:27:08;4.60;99.90
53422;DHT22;39319;52.944;5.928;2024-01-15T00:29:34;4.80;99.90
53422;DHT22;39319;52.944;5.928;2024-01-15T00:32:00;4.20;99.90
53422;DHT22;39319;52.944;5.928;2024-01-15T00:34:25;4.60;99.90
53422;DHT22;39319;52.944;5.928;2024-01-15T00:36:51;4.50;99.90
53422;DHT22;39319;52.944;5.928;2024-01-15T00:39:17;4.60;99.90
53422;DHT22;39319;52.944;5.928;2024-01-15T00:41:43;4.80;99.90
53422;DHT22;39319;52.944;5.928;2024-01-15T00:44:08;4.70;99.90
53422;DHT22;39319;52.944;5.928;2024-01-15T00:46:43;4.30;99.90
53422;DHT22;39319;52.944;5.928;2024-01-15T00:49:09;5.10;99.90
53422;DHT22;39319;52.944;5.928;2024-01-15T00:51:34;4.50;99.90
53422;DHT22;39319;52.944;5.928;2024-01-15T00:54:00;4.50;99.90
53422;DHT22;39319;52.944;5.928;2024-01-15T00:56:26;5.00;99.90
53422;DHT22;39319;52.944;5.928;2024-01-15T00:58:52;4.60;99.90
53422;DHT22;39319;52.944;5.928;2024-01-15T01:01:17;4.90;99.90
53422;DHT22;39319;52.944;5.928;2024-01-15T01:03:43;4.80;99.90
53422;DHT22;39319;52.944;5.928;2024-01-15T01:06:09;4.90;99.90
53422;DHT22;39319;52.944;5.928;2024-01-15T01:08:34;4.60;99.90
53422;DHT22;39319;52.944;5.928;2024-01-15T01:11:00;4.80;99.90
53422;DHT22;39319;52.944;5.928;2024-01-15T01:13:26;4.80;99.90
53422;DHT22;39319;52.944;5.928;2024-01-15T01:15:52;4.50;99.90
53422;DHT22;39319;52.944;5.928;2024-01-15T01:18:17;4.70;99.90
53422;DHT22;39319;52.944;5.928;2024-01-15T01:20:43;4.80;99.90
53422;DHT22;39319;52.944;5.928;2024-01-15T01:23:09;4.60;99.90
53422;DHT22;39319;52.944;5.928;2024-01-15T01:25:34;4.50;99.90
53422;DHT22;39319;52.944;5.928;2024-01-15T01:28:00;5.00;99.90
53422;DHT22;39319;52.944;5.928;2024-01-15T01:30:28;4.50;99.90
53422;DHT22;39319;52.944;5.928;2024-01-15T01:32:54;4.50;99.90
53422;DHT22;39319;52.944;5.928;2024-01-15T01:35:20;4.50;99.90
53422;DHT22;39319;52.944;5.928;2024-01-15T01:37:45;4.20;99.90
53422;DHT22;39319;52.944;5.928;2024-01-15T01:40:11;4.40;99.90
53422;DHT22;39319;52.944;5.928;2024-01-15T01:42:37;4.30;99.90
53422;DHT22;39319;52.944;5.928;2024-01-15T01:45:03;4.30;99.90
53422;DHT22;39319;52.944;5.928;2024-01-15T01:47:29;4.40;99.90
53422;DHT22;39319;52.944;5.928;2024-01-15T01:49:55;4.20;99.90
53422;DHT22;39319;52.944;5.928;2024-01-15T01:52:21;4.30;99.90
53422;DHT22;39319;52.944;5.928;2024-01-15T01:54:47;4.60;99.90
53422;DHT22;39319;52.944;5.928;2024-01-15T01:57:14;4.30;99.90
53422;DHT22;39319;52.944;5.928;2024-01-15T01:59:40;4.20;99.90
53422;DHT22;39319;52.944;5.928;2024-01-15T02:02:06;4.10;99.90
53422;DHT22;39319;52.944;5.928;2024-01-15T02:04:33;4.10;99.90
53422;DHT22;39319;52.944;5.928;2024-01-15T02:06:59;4.20;99.90
53422;DHT22;39319;52.944;5.928;2024-01-15T02:09:25;4.00;99.90
53422;DHT22;39319;52.944;5.928;2024-01-15T02:11:51;4.00;99.90
53422;DHT22;39319;52.944;5.928;2024-01-15T02:14:17;4.00;99.90
53422;DHT22;39319;52.944;5.928;2024-01-15T02:16:43;4.20;99.90
53422;DHT22;39319;52.944;5.928;2024-01-15T02:19:15;3.90;99.90
53422;DHT22;39319;52.944;5.928;2024-01-15T02:21:42;4.00;99.90
53422;DHT22;39319;52.944;5.928;2024-01-15T02:24:08;4.70;99.90
53422;DHT22;39319;52.944;5.928;2024-01-15T02:26:33;3.90;99.90
53422;DHT22;39319;52.944;5.928;2024-01-15T02:29:01;4.40;99.90
53422;DHT22;39319;52.944;5.928;2024-01-15T02:31:29;4.00;99.90
53422;DHT22;39319;52.944;5.928;2024-01-15T02:33:55;4.20;99.90
53422;DHT22;39319;52.944;5.928;2024-01-15T02:36:21;4.00;99.90
53422;DHT22;39319;52.944;5.928;2024-01-15T02:38:47;3.70;99.90
53422;DHT22;39319;52.944;5.928;2024-01-15T02:41:12;4.10;99.90
53422;DHT22;39319;52.944;5.928;2024-01-15T02:43:42;4.00;99.90
53422;DHT22;39319;52.944;5.928;2024-01-15T02:46:07;4.10;99.90
53422;DHT22;39319;52.944;5.928;2024-01-15T02:48:33;4.10;99.90
53422;DHT22;39319;52.944;5.928;2024-01-15T02:51:01;4.20;99.90
53422;DHT22;39319;52.944;5.928;2024-01-15T02:53:27;4.50;99.90
53422;DHT22;39319;52.944;5.928;2024-01-15T02:55:53;4.00;99.90
53422;DHT22;39319;52.944;5.928;2024-01-15T02:58:19;3.60;99.90
53422;DHT22;39319;52.944;5.928;2024-01-15T03:00:44;4.20;99.90
53422;DHT22;39319;52.944;5.928;2024-01-15T03:03:12;2.40;99.90
53422;DHT22;39319;52.944;5.928;2024-01-15T03:05:37;4.50;99.90
53422;DHT22;39319;52.944;5.928;2024-01-15T03:08:03;4.20;99.90
53422;DHT22;39319;52.944;5.928;2024-01-15T03:10:29;3.70;99.90
53422;DHT22;39319;52.944;5.928;2024-01-15T03:12:55;4.80;99.90
53422;DHT22;39319;52.944;5.928;2024-01-15T03:15:20;4.40;99.90
53422;DHT22;39319;52.944;5.928;2024-01-15T03:17:46;4.30;99.90
53422;DHT22;39319;52.944;5.928;2024-01-15T03:20:12;4.40;99.90
53422;DHT22;39319;52.944;5.928;2024-01-15T03:22:38;4.40;99.90
53422;DHT22;39319;52.944;5.928;2024-01-15T03:25:04;4.50;99.90
53422;DHT22;39319;52.944;5.928;2024-01-15T03:27:30;4.30;99.90
53422;DHT22;39319;52.944;5.928;2024-01-15T03:29:55;4.80;99.90
53422;DHT22;39319;52.944;5.928;2024-01-15T03:32:21;4.50;99.90
53422;DHT22;39319;52.944;5.928;2024-01-15T03:34:47;4.30;99.90
53422;DHT22;39319;52.944;5.928;2024-01-15T03:37:13;4.20;99.90
53422;DHT22;39319;52.944;5.928;2024-01-15T03:39:39;4.30;99.90
53422;DHT22;39319;52.944;5.928;2024-01-15T03:42:05;4.30;99.90
53422;DHT22;39319;52.944;5.928;2024-01-15T03:44:31;4.30;99.90
53422;DHT22;39319;52.944;5.928;2024-01-15T03:46:57;4.10;99.90
53422;DHT22;39319;52.944;5.928;2024-01-15T03:49:23;4.00;99.90
53422;DHT22;39319;52.944;5.928;2024-01-15T03:51:49;4.40;99.90
53422;DHT22;39319;52.944;5.928;2024-01-15T03:54:15;4.70;99.90
53422;DHT22;39319;52.944;5.928;2024-01-15T03:56:40;4.20;99.90
53422;DHT22;39319;52.944;5.928;2024-01-15T03:59:06;4.40;99.90
53422;DHT22;39319;52.944;5.928;2024-01-15T04:01:32;4.00;99.90
53422;DHT22;39319;52.944;5.928;2024-01-15T04:03:57;4.30;99.90
53422;DHT22;39319;52.944;5.928;2024-01-15T04:06:23;4.60;99.90
53422;DHT22;39319;52.944;5.928;2024-01-15T04:08:49;3.90;99.90
53422;DHT22;39319;52.944;5.928;2024-01-15T04:11:15;5.30;99.90
53422;DHT22;39319;52.944;5.928;2024-01-15T04:13:40;4.20;99.90
53422;DHT22;39319;52.944;5.928;2024-01-15T04:16:06;4.40;99.90
53422;DHT22;39319;52.944;5.928;2024-01-15T04:18:32;4.20;99.90
53422;DHT22;39319;52.944;5.928;2024-01-15T04:20:57;4.60;99.90
53422;DHT22;39319;52.944;5.928;2024-01-15T04:23:23;4.20;99.90
53422;DHT22;39319;52.944;5.928;2024-01-15T04:25:49;4.20;99.90
53422;DHT22;39319;52.944;5.928;2024-01-15T04:28:15;3.80;99.90
53422;DHT22;39319;52.944;5.928;2024-01-15T04:30:40;4.70;99.90
53422;DHT22;39319;52.944;5.928;2024-01-15T04:33:06;4.50;99.90
53422;DHT22;39319;52.944;5.928;2024-01-15T04:35:32;4.20;99.90
53422;DHT22;39319;52.944;5.928;2024-01-15T04:37:58;4.10;99.90
53422;DHT22;39319;52.944;5.928;2024-01-15T04:40:24;4.10;99.90
53422;DHT22;39319;52.944;5.928;2024-01-15T04:42:53;4.90;99.90
53422;DHT22;39319;52.944;5.928;2024-01-15T04:45:19;4.10;99.90
53422;DHT22;39319;52.944;5.928;2024-01-15T04:47:48;4.20;99.90
53422;DHT22;39319;52.944;5.928;2024-01-15T04:50:14;3.90;99.90
53422;DHT22;39319;52.944;5.928;2024-01-15T04:52:40;3.90;99.90
53422;DHT22;39319;52.944;5.928;2024-01-15T04:55:06;4.40;99.90
53422;DHT22;39319;52.944;5.928;2024-01-15T04:57:34;4.00;99.90
53422;DHT22;39319;52.944;5.928;2024-01-15T04:59:59;4.20;99.90
53422;DHT22;39319;52.944;5.928;2024-01-15T05:02:25;4.00;99.90
53422;DHT22;39319;52.944;5.928;2024-01-15T05:04:51;3.90;99.90
53422;DHT22;39319;52.944;5.928;2024-01-15T05:07:16;3.90;99.90
53422;DHT22;39319;52.944;5.928;2024-01-15T05:09:42;3.80;99.90
53422;DHT22;39319;52.944;5.928;2024-01-15T05:12:08;4.40;99.90
53422;DHT22;39319;52.944;5.928;2024-01-15T05:14:33;4.30;99.90
53422;DHT22;39319;52.944;5.928;2024-01-15T05:16:59;4.00;99.90
53422;DHT22;39319;52.944;5.928;2024-01-15T05:19:25;3.70;99.90
53422;DHT22;39319;52.944;5.928;2024-01-15T05:21:50;4.70;99.90
53422;DHT22;39319;52.944;5.928;2024-01-15T05:24:16;4.50;99.90
53422;DHT22;39319;52.944;5.928;2024-01-15T05:26:42;4.10;99.90
53422;DHT22;39319;52.944;5.928;2024-01-15T05:29:07;3.80;99.90
53422;DHT22;39319;52.944;5.928;2024-01-15T05:31:33;4.20;99.90
53422;DHT22;39319;52.944;5.928;2024-01-15T05:33:59;3.90;99.90
53422;DHT22;39319;52.944;5.928;2024-01-15T05:36:24;3.60;99.90
53422;DHT22;39319;52.944;5.928;2024-01-15T05:38:50;3.70;99.90
53422;DHT22;39319;52.944;5.928;2024-01-15T05:41:16;4.30;99.90
53422;DHT22;39319;52.944;5.928;2024-01-15T05:43:42;3.70;99.90
53422;DHT22;39319;52.944;5.928;2024-01-15T05:46:09;4.00;99.90
53422;DHT22;39319;52.944;5.928;2024-01-15T05:48:35;4.50;99.90
53422;DHT22;39319;52.944;5.928;2024-01-15T05:51:01;4.40;99.90
53422;DHT22;39319;52.944;5.928;2024-01-15T05:53:27;3.90;99.90
53422;DHT22;39319;52.944;5.928;2024-01-15T05:55:53;3.70;99.90
53422;DHT22;39319;52.944;5.928;2024-01-15T05:58:21;4.10;99.90
53422;DHT22;39319;52.944;5.928;2024-01-15T06:00:47;3.80;99.90
53422;DHT22;39319;52.944;5.928;2024-01-15T06:03:13;3.90;99.90
53422;DHT22;39319;52.944;5.928;2024-01-15T06:05:39;4.10;99.90
53422;DHT22;39319;52.944;5.928;2024-01-15T06:08:05;3.90;99.90
53422;DHT22;39319;52.944;5.928;2024-01-15T06:10:31;4.10;99.90
53422;DHT22;39319;52.944;5.928;2024-01-15T06:12:56;3.80;99.90
53422;DHT22;39319;52.944;5.928;2024-01-15T06:15:22;4.30;99.90
53422;DHT22;39319;52.944;5.928;2024-01-15T06:17:48;4.10;99.90
53422;DHT22;39319;52.944;5.928;2024-01-15T06:20:13;3.80;99.90
53422;DHT22;39319;52.944;5.928;2024-01-15T06:22:41;3.80;99.90
53422;DHT22;39319;52.944;5.928;2024-01-15T06:25:10;3.70;99.90
53422;DHT22;39319;52.944;5.928;2024-01-15T06:27:36;3.80;99.90
53422;DHT22;39319;52.944;5.928;2024-01-15T06:30:01;4.10;99.90
53422;DHT22;39319;52.944;5.928;2024-01-15T06:32:27;3.80;99.90
53422;DHT22;39319;52.944;5.928;2024-01-15T06:34:53;3.90;99.90
53422;DHT22;39319;52.944;5.928;2024-01-15T06:37:19;3.70;99.90
53422;DHT22;39319;52.944;5.928;2024-01-15T06:39:45;3.70;99.90
53422;DHT22;39319;52.944;5.928;2024-01-15T06:42:11;3.80;99.90
53422;DHT22;39319;52.944;5.928;2024-01-15T06:44:37;3.80;99.90
53422;DHT22;39319;52.944;5.928;2024-01-15T06:47:03;3.70;99.90
53422;DHT22;39319;52.944;5.928;2024-01-15T06:49:29;4.00;99.90
53422;DHT22;39319;52.944;5.928;2024-01-15T06:51:55;4.20;99.90
53422;DHT22;39319;52.944;5.928;2024-01-15T06:54:21;3.70;99.90
53422;DHT22;39319;52.944;5.928;2024-01-15T06:56:47;4.40;99.90
53422;DHT22;39319;52.944;5.928;2024-01-15T06:59:13;3.90;99.90
53422;DHT22;39319;52.944;5.928;2024-01-15T07:01:38;4.30;99.90
53422;DHT22;39319;52.944;5.928;2024-01-15T07:04:04;3.60;99.90
53422;DHT22;39319;52.944;5.928;2024-01-15T07:06:30;3.70;99.90
53422;DHT22;39319;52.944;5.928;2024-01-15T07:08:56;3.70;99.90
53422;DHT22;39319;52.944;5.928;2024-01-15T07:11:22;3.60;99.90
53422;DHT22;39319;52.944;5.928;2024-01-15T07:13:48;4.50;99.90
53422;DHT22;39319;52.944;5.928;2024-01-15T07:16:13;3.50;99.90
53422;DHT22;39319;52.944;5.928;2024-01-15T07:18:39;3.60;99.90
53422;DHT22;39319;52.944;5.928;2024-01-15T07:21:05;3.60;99.90
53422;DHT22;39319;52.944;5.928;2024-01-15T07:23:31;4.90;99.90
53422;DHT22;39319;52.944;5.928;2024-01-15T07:25:57;3.60;99.90
53422;DHT22;39319;52.944;5.928;2024-01-15T07:28:23;3.70;99.90
53422;DHT22;39319;52.944;5.928;2024-01-15T07:30:49;3.90;99.90
53422;DHT22;39319;52.944;5.928;2024-01-15T07:33:14;3.60;99.90
53422;DHT22;39319;52.944;5.928;2024-01-15T07:35:40;4.00;99.90
53422;DHT22;39319;52.944;5.928;2024-01-15T07:38:06;3.90;99.90
53422;DHT22;39319;52.944;5.928;2024-01-15T07:40:32;4.00;99.90
53422;DHT22;39319;52.944;5.928;2024-01-15T07:42:58;3.60;99.90
53422;DHT22;39319;52.944;5.928;2024-01-15T07:45:23;3.80;99.90
53422;DHT22;39319;52.944;5.928;2024-01-15T07:47:49;3.70;99.90
53422;DHT22;39319;52.944;5.928;2024-01-15T07:50:15;4.10;99.90
53422;DHT22;39319;52.944;5.928;2024-01-15T07:52:43;4.10;99.90
53422;DHT22;39319;52.944;5.928;2024-01-15T07:55:09;4.20;99.90
53422;DHT22;39319;52.944;5.928;2024-01-15T07:57:34;3.80;99.90
53422;DHT22;39319;52.944;5.928;2024-01-15T08:00:02;3.90;99.90
53422;DHT22;39319;52.944;5.928;2024-01-15T08:02:30;3.70;99.90
53422;DHT22;39319;52.944;5.928;2024-01-15T08:04:57;4.20;99.90
53422;DHT22;39319;52.944;5.928;2024-01-15T08:07:25;4.40;99.90
53422;DHT22;39319;52.944;5.928;2024-01-15T08:09:51;4.30;99.90
53422;DHT22;39319;52.944;5.928;2024-01-15T08:12:17;4.90;99.90
53422;DHT22;39319;52.944;5.928;2024-01-15T08:14:43;4.10;99.90
53422;DHT22;39319;52.944;5.928;2024-01-15T08:17:09;4.40;99.90
53422;DHT22;39319;52.944;5.928;2024-01-15T08:19:34;4.20;99.90
53422;DHT22;39319;52.944;5.928;2024-01-15T08:22:00;4.10;99.90
53422;DHT22;39319;52.944;5.928;2024-01-15T08:24:26;4.00;99.90
53422;DHT22;39319;52.944;5.928;2024-01-15T08:26:52;4.10;99.90
53422;DHT22;39319;52.944;5.928;2024-01-15T08:29:17;4.40;99.90
53422;DHT22;39319;52.944;5.928;2024-01-15T08:31:46;4.20;99.90
53422;DHT22;39319;52.944;5.928;2024-01-15T08:34:12;3.90;99.90
53422;DHT22;39319;52.944;5.928;2024-01-15T08:36:37;4.00;99.90
53422;DHT22;39319;52.944;5.928;2024-01-15T08:39:03;4.90;99.90
53422;DHT22;39319;52.944;5.928;2024-01-15T08:41:33;4.00;99.90
53422;DHT22;39319;52.944;5.928;2024-01-15T08:43:59;4.00;99.90
53422;DHT22;39319;52.944;5.928;2024-01-15T08:46:24;4.00;99.90
53422;DHT22;39319;52.944;5.928;2024-01-15T08:48:50;3.80;99.90
53422;DHT22;39319;52.944;5.928;2024-01-15T08:51:16;3.50;99.90
53422;DHT22;39319;52.944;5.928;2024-01-15T08:53:44;3.90;99.90
53422;DHT22;39319;52.944;5.928;2024-01-15T08:56:09;4.10;99.90
53422;DHT22;39319;52.944;5.928;2024-01-15T08:58:36;3.90;99.90
53422;DHT22;39319;52.944;5.928;2024-01-15T09:01:04;3.90;99.90
53422;DHT22;39319;52.944;5.928;2024-01-15T09:03:30;4.10;99.90
53422;DHT22;39319;52.944;5.928;2024-01-15T09:05:56;3.70;99.90
53422;DHT22;39319;52.944;5.928;2024-01-15T09:08:22;4.20;99.90
53422;DHT22;39319;52.944;5.928;2024-01-15T09:10:47;4.30;99.90
53422;DHT22;39319;52.944;5.928;2024-01-15T09:13:13;4.00;99.90
53422;DHT22;39319;52.944;5.928;2024-01-15T09:15:42;3.70;99.90
53422;DHT22;39319;52.944;5.928;2024-01-15T09:18:08;3.80;99.90
53422;DHT22;39319;52.944;5.928;2024-01-15T09:20:33;4.10;99.90
53422;DHT22;39319;52.944;5.928;2024-01-15T09:22:59;3.80;99.90
53422;DHT22;39319;52.944;5.928;2024-01-15T09:25:25;3.60;99.90
53422;DHT22;39319;52.944;5.928;2024-01-15T09:27:51;4.40;99.90
53422;DHT22;39319;52.944;5.928;2024-01-15T09:30:17;4.00;99.90
53422;DHT22;39319;52.944;5.928;2024-01-15T09:32:43;4.30;99.90
53422;DHT22;39319;52.944;5.928;2024-01-15T09:35:09;4.10;99.90
53422;DHT22;39319;52.944;5.928;2024-01-15T09:37:34;3.90;99.90
53422;DHT22;39319;52.944;5.928;2024-01-15T09:40:00;4.00;99.90
53422;DHT22;39319;52.944;5.928;2024-01-15T09:42:27;3.90;99.90
53422;DHT22;39319;52.944;5.928;2024-01-15T09:44:53;3.90;99.90
53422;DHT22;39319;52.944;5.928;2024-01-15T09:47:20;3.90;99.90
53422;DHT22;39319;52.944;5.928;2024-01-15T09:49:47;3.90;99.90
53422;DHT22;39319;52.944;5.928;2024-01-15T09:52:14;4.80;99.90
53422;DHT22;39319;52.944;5.928;2024-01-15T09:54:43;4.10;99.90
53422;DHT22;39319;52.944;5.928;2024-01-15T09:57:12;3.10;99.90
53422;DHT22;39319;52.944;5.928;2024-01-15T09:59:38;4.20;99.90
53422;DHT22;39319;52.944;5.928;2024-01-15T10:02:06;4.20;99.90
53422;DHT22;39319;52.944;5.928;2024-01-15T10:04:32;4.80;99.90
53422;DHT22;39319;52.944;5.928;2024-01-15T10:07:00;4.40;99.90
53422;DHT22;39319;52.944;5.928;2024-01-15T10:09:27;4.20;99.90
53422;DHT22;39319;52.944;5.928;2024-01-15T10:11:53;4.70;99.90
53422;DHT22;39319;52.944;5.928;2024-01-15T10:14:19;4.60;99.90
53422;DHT22;39319;52.944;5.928;2024-01-15T10:16:45;4.60;99.90
53422;DHT22;39319;52.944;5.928;2024-01-15T10:19:11;4.80;99.90
53422;DHT22;39319;52.944;5.928;2024-01-15T10:21:37;4.50;99.90
53422;DHT22;39319;52.944;5.928;2024-01-15T10:24:04;4.80;99.90
53422;DHT22;39319;52.944;5.928;2024-01-15T10:26:30;4.80;99.90
53422;DHT22;39319;52.944;5.928;2024-01-15T10:28:58;4.80;99.90
53422;DHT22;39319;52.944;5.928;2024-01-15T10:31:25;4.80;99.90
53422;DHT22;39319;52.944;5.928;2024-01-15T10:33:51;5.00;99.90
53422;DHT22;39319;52.944;5.928;2024-01-15T10:36:17;4.20;99.90
53422;DHT22;39319;52.944;5.928;2024-01-15T10:38:44;4.20;99.90
53422;DHT22;39319;52.944;5.928;2024-01-15T10:41:10;4.60;99.90
53422;DHT22;39319;52.944;5.928;2024-01-15T10:43:36;4.40;99.90
53422;DHT22;39319;52.944;5.928;2024-01-15T10:46:02;4.30;99.90
53422;DHT22;39319;52.944;5.928;2024-01-15T10:48:28;2.90;99.90
53422;DHT22;39319;52.944;5.928;2024-01-15T10:50:57;4.20;99.90
53422;DHT22;39319;52.944;5.928;2024-01-15T10:53:24;4.20;99.90
53422;DHT22;39319;52.944;5.928;2024-01-15T10:55:50;4.00;99.90
53422;DHT22;39319;52.944;5.928;2024-01-15T10:58:21;4.10;99.90
53422;DHT22;39319;52.944;5.928;2024-01-15T11:00:49;4.10;99.90
53422;DHT22;39319;52.944;5.928;2024-01-15T11:03:15;4.00;99.90
53422;DHT22;39319;52.944;5.928;2024-01-15T11:05:43;4.80;99.90
53422;DHT22;39319;52.944;5.928;2024-01-15T11:08:09;4.20;99.90
53422;DHT22;39319;52.944;5.928;2024-01-15T11:10:53;4.10;99.90
53422;DHT22;39319;52.944;5.928;2024-01-15T11:13:40;3.90;99.90
53422;DHT22;39319;52.944;5.928;2024-01-15T11:16:07;4.30;99.90
53422;DHT22;39319;52.944;5.928;2024-01-15T11:23:44;4.40;99.90
53422;DHT22;39319;52.944;5.928;2024-01-15T11:26:46;4.20;99.90
53422;DHT22;39319;52.944;5.928;2024-01-15T11:29:41;4.50;99.90
53422;DHT22;39319;52.944;5.928;2024-01-15T11:32:08;4.40;99.90
53422;DHT22;39319;52.944;5.928;2024-01-15T11:35:03;4.60;99.90
53422;DHT22;39319;52.944;5.928;2024-01-15T11:40:21;4.50;99.90
53422;DHT22;39319;52.944;5.928;2024-01-15T11:42:48;4.80;99.90
53422;DHT22;39319;52.944;5.928;2024-01-15T11:45:21;4.70;99.90
53422;DHT22;39319;52.944;5.928;2024-01-15T11:50:32;4.50;99.90
53422;DHT22;39319;52.944;5.928;2024-01-15T11:53:03;5.30;99.90
53422;DHT22;39319;52.944;5.928;2024-01-15T11:55:39;4.90;99.90
53422;DHT22;39319;52.944;5.928;2024-01-15T11:58:09;5.00;99.90
53422;DHT22;39319;52.944;5.928;2024-01-15T12:00:45;4.80;99.90
53422;DHT22;39319;52.944;5.928;2024-01-15T12:03:12;4.80;99.90
53422;DHT22;39319;52.944;5.928;2024-01-15T12:05:38;4.60;99.90
53422;DHT22;39319;52.944;5.928;2024-01-15T12:08:04;4.70;99.90
53422;DHT22;39319;52.944;5.928;2024-01-15T12:10:37;4.60;99.90
53422;DHT22;39319;52.944;5.928;2024-01-15T12:13:14;4.80;99.90
53422;DHT22;39319;52.944;5.928;2024-01-15T12:15:44;4.40;99.90
53422;DHT22;39319;52.944;5.928;2024-01-15T12:18:15;4.70;99.90
53422;DHT22;39319;52.944;5.928;2024-01-15T12:20:42;4.70;99.90
53422;DHT22;39319;52.944;5.928;2024-01-15T12:23:08;5.00;99.90
53422;DHT22;39319;52.944;5.928;2024-01-15T12:25:35;4.90;99.90
53422;DHT22;39319;52.944;5.928;2024-01-15T12:28:01;5.00;99.90
53422;DHT22;39319;52.944;5.928;2024-01-15T12:30:28;5.70;99.90
53422;DHT22;39319;52.944;5.928;2024-01-15T12:32:55;6.10;99.90
53422;DHT22;39319;52.944;5.928;2024-01-15T12:35:21;6.20;99.90
53422;DHT22;39319;52.944;5.928;2024-01-15T12:37:47;5.70;99.70
53422;DHT22;39319;52.944;5.928;2024-01-15T12:40:13;6.10;99.70
53422;DHT22;39319;52.944;5.928;2024-01-15T12:42:44;6.60;99.90
53422;DHT22;39319;52.944;5.928;2024-01-15T12:45:11;5.90;99.70
53422;DHT22;39319;52.944;5.928;2024-01-15T12:47:38;6.20;99.90
53422;DHT22;39319;52.944;5.928;2024-01-15T12:50:11;5.80;99.90
53422;DHT22;39319;52.944;5.928;2024-01-15T12:52:40;5.70;99.90
53422;DHT22;39319;52.944;5.928;2024-01-15T12:55:08;5.40;99.90
53422;DHT22;39319;52.944;5.928;2024-01-15T12:57:37;5.50;99.90
53422;DHT22;39319;52.944;5.928;2024-01-15T13:00:06;5.60;99.90
53422;DHT22;39319;52.944;5.928;2024-01-15T13:02:39;5.60;99.90
53422;DHT22;39319;52.944;5.928;2024-01-15T13:05:08;5.50;99.90
53422;DHT22;39319;52.944;5.928;2024-01-15T13:07:37;5.20;99.90
53422;DHT22;39319;52.944;5.928;2024-01-15T13:10:03;5.30;99.90
53422;DHT22;39319;52.944;5.928;2024-01-15T13:12:29;5.60;99.90
53422;DHT22;39319;52.944;5.928;2024-01-15T13:14:55;5.50;99.90
53422;DHT22;39319;52.944;5.928;2024-01-15T13:17:21;5.60;99.90
53422;DHT22;39319;52.944;5.928;2024-01-15T13:19:47;5.60;99.90
53422;DHT22;39319;52.944;5.928;2024-01-15T13:22:14;5.60;99.90
53422;DHT22;39319;52.944;5.928;2024-01-15T13:24:40;6.30;99.90
53422;DHT22;39319;52.944;5.928;2024-01-15T13:27:05;7.00;99.90
53422;DHT22;39319;52.944;5.928;2024-01-15T13:29:32;7.10;99.30
53422;DHT22;39319;52.944;5.928;2024-01-15T13:31:59;7.30;98.70
53422;DHT22;39319;52.944;5.928;2024-01-15T13:34:25;7.60;98.30
53422;DHT22;39319;52.944;5.928;2024-01-15T13:36:50;8.10;97.30
53422;DHT22;39319;52.944;5.928;2024-01-15T13:39:16;8.30;96.80
53422;DHT22;39319;52.944;5.928;2024-01-15T13:41:46;8.60;96.20
53422;DHT22;39319;52.944;5.928;2024-01-15T13:44:12;9.10;95.60
53422;DHT22;39319;52.944;5.928;2024-01-15T13:46:37;8.80;95.00
53422;DHT22;39319;52.944;5.928;2024-01-15T13:49:03;8.60;94.70
53422;DHT22;39319;52.944;5.928;2024-01-15T13:51:31;9.00;94.70
53422;DHT22;39319;52.944;5.928;2024-01-15T13:53:57;9.10;94.70
53422;DHT22;39319;52.944;5.928;2024-01-15T13:56:23;8.80;94.20
53422;DHT22;39319;52.944;5.928;2024-01-15T13:58:49;9.30;93.70
53422;DHT22;39319;52.944;5.928;2024-01-15T14:01:15;9.30;93.80
53422;DHT22;39319;52.944;5.928;2024-01-15T14:03:43;9.60;93.20
53422;DHT22;39319;52.944;5.928;2024-01-15T14:06:09;9.10;93.30
53422;DHT22;39319;52.944;5.928;2024-01-15T14:08:36;9.40;94.20
53422;DHT22;39319;52.944;5.928;2024-01-15T14:11:05;8.50;93.80
53422;DHT22;39319;52.944;5.928;2024-01-15T14:13:33;7.70;94.00
53422;DHT22;39319;52.944;5.928;2024-01-15T14:15:59;7.80;94.50
53422;DHT22;39319;52.944;5.928;2024-01-15T14:18:26;7.60;94.90
53422;DHT22;39319;52.944;5.928;2024-01-15T14:20:51;7.00;94.80
53422;DHT22;39319;52.944;5.928;2024-01-15T14:23:21;7.00;94.90
53422;DHT22;39319;52.944;5.928;2024-01-15T14:25:47;6.80;95.10
53422;DHT22;39319;52.944;5.928;2024-01-15T14:28:13;6.50;95.10
53422;DHT22;39319;52.944;5.928;2024-01-15T14:30:38;6.90;95.10
53422;DHT22;39319;52.944;5.928;2024-01-15T14:33:04;6.80;95.30
53422;DHT22;39319;52.944;5.928;2024-01-15T14:35:30;6.50;95.30
53422;DHT22;39319;52.944;5.928;2024-01-15T14:37:56;6.90;95.70
53422;DHT22;39319;52.944;5.928;2024-01-15T14:40:24;6.20;96.00
53422;DHT22;39319;52.944;5.928;2024-01-15T14:42:50;6.10;95.90
53422;DHT22;39319;52.944;5.928;2024-01-15T14:45:19;6.00;96.20
53422;DHT22;39319;52.944;5.928;2024-01-15T14:47:45;5.90;96.40
53422;DHT22;39319;52.944;5.928;2024-01-15T14:50:10;6.00;96.90
53422;DHT22;39319;52.944;5.928;2024-01-15T14:52:40;5.10;97.10
53422;DHT22;39319;52.944;5.928;2024-01-15T14:55:07;5.90;97.90
53422;DHT22;39319;52.944;5.928;2024-01-15T14:57:34;5.60;97.80
53422;DHT22;39319;52.944;5.928;2024-01-15T15:00:00;5.50;98.00
53422;DHT22;39319;52.944;5.928;2024-01-15T15:02:27;5.20;98.20
53422;DHT22;39319;52.944;5.928;2024-01-15T15:04:54;6.00;98.80
53422;DHT22;39319;52.944;5.928;2024-01-15T15:07:21;5.60;98.70
53422;DHT22;39319;52.944;5.928;2024-01-15T15:09:48;5.50;98.60
53422;DHT22;39319;52.944;5.928;2024-01-15T15:12:16;5.00;98.50
53422;DHT22;39319;52.944;5.928;2024-01-15T15:14:42;5.30;98.70
53422;DHT22;39319;52.944;5.928;2024-01-15T15:17:08;5.30;98.70
53422;DHT22;39319;52.944;5.928;2024-01-15T15:19:35;5.80;99.00
53422;DHT22;39319;52.944;5.928;2024-01-15T15:22:01;4.90;98.80
53422;DHT22;39319;52.944;5.928;2024-01-15T15:24:27;5.00;99.20
53422;DHT22;39319;52.944;5.928;2024-01-15T15:26:53;5.10;99.30
53422;DHT22;39319;52.944;5.928;2024-01-15T15:29:18;4.90;99.30
53422;DHT22;39319;52.944;5.928;2024-01-15T15:31:45;4.70;99.50
53422;DHT22;39319;52.944;5.928;2024-01-15T15:34:11;4.90;99.90
53422;DHT22;39319;52.944;5.928;2024-01-15T15:36:37;5.00;99.90
53422;DHT22;39319;52.944;5.928;2024-01-15T15:39:03;4.60;99.90
53422;DHT22;39319;52.944;5.928;2024-01-15T15:41:28;4.50;99.90
53422;DHT22;39319;52.944;5.928;2024-01-15T15:43:54;4.40;99.90
53422;DHT22;39319;52.944;5.928;2024-01-15T15:46:20;4.50;99.90
53422;DHT22;39319;52.944;5.928;2024-01-15T15:48:46;4.10;99.90
53422;DHT22;39319;52.944;5.928;2024-01-15T15:51:12;4.70;99.90